createdAt,value
2019-04-14T00:01:15.116Z,103893.13
2019-04-14T00:04:29.063Z,103880.95
2019-04-14T00:07:36.313Z,103887.87
2019-04-14T00:10:42.632Z,103891.56
2019-04-14T00:13:50.130Z,103886.17
2019-04-14T00:16:57.796Z,103883.23
2019-04-14T00:20:05.364Z,103887.67
2019-04-14T00:23:12.995Z,103891.89
2019-04-14T00:26:31.560Z,103883.70
2019-04-14T00:29:39.202Z,103885.75
2019-04-14T00:32:50.943Z,103882.27
2019-04-14T00:36:10.924Z,103879.56
2019-04-14T00:39:31.536Z,103888.20
2019-04-14T00:43:07.489Z,103882.14
2019-04-14T00:46:19.004Z,103883.03
2019-04-14T00:49:26.765Z,103891.72
2019-04-14T00:52:34.052Z,103888.20
2019-04-14T00:55:40.527Z,103882.20
2019-04-14T00:58:47.535Z,103879.66
2019-04-14T01:01:54.794Z,103890.67
2019-04-14T01:05:02.532Z,103877.86
2019-04-14T01:08:09.673Z,103895.45
2019-04-14T01:11:16.395Z,103881.00
2019-04-14T01:14:23.306Z,103885.28
2019-04-14T01:17:30.907Z,103890.36
2019-04-14T01:20:38.531Z,103889.23
2019-04-14T01:23:45.537Z,103892.19
2019-04-14T01:26:52.866Z,103890.84
2019-04-14T01:30:00.353Z,103891.88
2019-04-14T01:33:07.614Z,103901.01
2019-04-14T01:36:14.851Z,103893.87
2019-04-14T01:39:22.174Z,103894.61
2019-04-14T01:42:28.898Z,103896.73
2019-04-14T01:45:35.921Z,103894.27
2019-04-14T01:48:43.198Z,103896.39
2019-04-14T01:52:08.186Z,103892.16
2019-04-14T01:55:22.311Z,103894.64
2019-04-14T01:58:33.903Z,103895.62
2019-04-14T02:01:41.144Z,103896.80
2019-04-14T02:04:48.522Z,103898.62
2019-04-14T02:07:55.867Z,103906.39
2019-04-14T02:11:02.995Z,103892.75
2019-04-14T02:14:10.422Z,103896.39
2019-04-14T02:17:17.760Z,103900.27
2019-04-14T02:20:25.069Z,103892.25
2019-04-14T02:23:32.279Z,103884.84
2019-04-14T02:26:39.914Z,103896.66
2019-04-14T02:29:47.242Z,103893.40
2019-04-14T02:33:26.039Z,103901.65
2019-04-14T02:36:36.369Z,103908.48
2019-04-14T02:39:39.114Z,103902.05
2019-04-14T02:42:56.396Z,103912.48
2019-04-14T02:45:57.904Z,103918.48
2019-04-14T02:48:58.426Z,103918.48
2019-04-14T02:52:12.368Z,103923.16
2019-04-14T02:55:32.415Z,103935.30
2019-04-14T02:58:28.482Z,103927.39
2019-04-14T03:01:50.774Z,103930.00
2019-04-14T03:04:45.325Z,103924.70
2019-04-14T03:07:54.439Z,103938.41
2019-04-14T03:14:06.332Z,103929.31
2019-04-14T03:21:04.003Z,103929.25
2019-04-14T03:24:31.751Z,103941.66
2019-04-14T03:27:49.970Z,103941.28
2019-04-14T03:34:21.180Z,103955.01
2019-04-14T03:37:40.659Z,103955.01
2019-04-14T03:40:28.142Z,103956.34
2019-04-14T03:43:31.015Z,103957.89
2019-04-14T03:46:41.464Z,103956.50
2019-04-14T03:49:45.238Z,103960.11
2019-04-14T03:52:55.771Z,103921.02
2019-04-14T03:56:17.648Z,103963.86
2019-04-14T03:59:24.011Z,103979.55
2019-04-14T04:02:31.529Z,103964.31
2019-04-14T04:05:39.188Z,103969.25
2019-04-14T04:08:46.467Z,103970.84
2019-04-14T04:11:54.040Z,103973.91
2019-04-14T04:15:01.844Z,103974.52
2019-04-14T04:18:21.911Z,103967.01
2019-04-14T04:21:50.939Z,103967.84
2019-04-14T04:25:02.966Z,103971.41
2019-04-14T04:28:27.865Z,103972.06
2019-04-14T04:31:44.318Z,103977.71
2019-04-14T04:35:10.722Z,103975.48
2019-04-14T04:38:39.866Z,103976.81
2019-04-14T04:41:47.255Z,103984.23
2019-04-14T04:44:53.718Z,103985.41
2019-04-14T04:48:00.442Z,103986.59
2019-04-14T04:51:07.216Z,103987.53
2019-04-14T04:54:14.688Z,103990.67
2019-04-14T04:57:22.062Z,103990.39
2019-04-14T05:00:28.806Z,103982.59
2019-04-14T05:03:36.165Z,103989.12
2019-04-14T05:07:01.822Z,103983.37
2019-04-14T05:10:33.371Z,103990.81
2019-04-14T05:13:42.408Z,103981.89
2019-04-14T05:16:48.950Z,103992.13
2019-04-14T05:19:56.222Z,103983.07
2019-04-14T05:23:03.656Z,103999.67
2019-04-14T05:26:11.298Z,103991.12
2019-04-14T05:29:18.879Z,103990.52
2019-04-14T05:32:26.155Z,103986.78
2019-04-14T05:35:33.381Z,104001.30
2019-04-14T05:38:40.796Z,103999.57
2019-04-14T05:41:56.758Z,103999.20
2019-04-14T05:44:55.850Z,103995.91
2019-04-14T05:48:03.224Z,103999.80
2019-04-14T05:51:10.958Z,104001.92
2019-04-14T05:54:18.540Z,103998.48
2019-04-14T05:57:26.221Z,104004.88
2019-04-14T06:00:34.207Z,103991.59
2019-04-14T06:03:40.974Z,104003.96
2019-04-14T06:06:48.059Z,104002.98
2019-04-14T06:09:54.572Z,104011.84
2019-04-14T06:13:00.898Z,104013.42
2019-04-14T06:16:07.398Z,104005.55
2019-04-14T06:19:13.817Z,104005.19
2019-04-14T06:22:20.215Z,104005.19
2019-04-14T06:25:26.579Z,104011.58
2019-04-14T06:28:33.132Z,104003.78
2019-04-14T06:31:48.847Z,104001.80
2019-04-14T06:35:12.827Z,104006.15
2019-04-14T06:38:29.076Z,104008.19
2019-04-14T06:41:35.643Z,104016.77
2019-04-14T06:44:42.002Z,104017.65
2019-04-14T06:47:48.574Z,104017.06
2019-04-14T06:50:55.047Z,104012.84
2019-04-14T06:54:02.687Z,104018.27
2019-04-14T06:57:09.022Z,104021.16
2019-04-14T07:00:15.499Z,104010.93
2019-04-14T07:03:21.877Z,104018.86
2019-04-14T07:06:28.360Z,104026.73
2019-04-14T07:09:35.069Z,104022.89
2019-04-14T07:12:43.017Z,104029.65
2019-04-14T07:15:49.474Z,104036.55
2019-04-14T07:18:55.877Z,104025.45
2019-04-14T07:22:02.199Z,104021.09
2019-04-14T07:25:08.686Z,104017.97
2019-04-14T07:28:15.038Z,104021.86
2019-04-14T07:31:46.581Z,104034.73
2019-04-14T07:35:14.894Z,104029.88
2019-04-14T07:38:30.617Z,104030.28
2019-04-14T07:41:44.236Z,103988.95
2019-04-14T07:45:18.541Z,104026.66
2019-04-14T07:48:36.291Z,104020.80
2019-04-14T07:52:13.907Z,104012.72
2019-04-14T07:55:37.590Z,104012.72
2019-04-14T07:59:05.932Z,104032.34
2019-04-14T08:02:34.206Z,104020.09
2019-04-14T08:05:41.164Z,104023.20
2019-04-14T08:08:47.511Z,104028.50
2019-04-14T08:11:54.146Z,104023.94
2019-04-14T08:15:00.576Z,104020.33
2019-04-14T08:18:07.017Z,104031.39
2019-04-14T08:21:13.375Z,104028.68
2019-04-14T08:24:19.837Z,104018.85
2019-04-14T08:27:26.243Z,104014.61
2019-04-14T08:30:32.768Z,104020.66
2019-04-14T08:33:39.212Z,104017.08
2019-04-14T08:36:45.618Z,104013.84
2019-04-14T08:39:51.958Z,104013.79
2019-04-14T08:43:16.149Z,104020.58
2019-04-14T08:46:40.441Z,104013.18
2019-04-14T08:50:03.420Z,104015.34
2019-04-14T08:53:31.883Z,104017.09
2019-04-14T08:57:00.713Z,103999.52
2019-04-14T09:00:14.392Z,103999.52
2019-04-14T09:03:38.722Z,104018.69
2019-04-14T09:06:53.150Z,104027.73
2019-04-14T09:10:03.931Z,104023.30
2019-04-14T09:13:11.199Z,104029.56
2019-04-14T09:16:17.733Z,104024.52
2019-04-14T09:19:24.179Z,104029.81
2019-04-14T09:22:31.544Z,104030.92
2019-04-14T09:25:39.395Z,104034.04
2019-04-14T09:28:46.275Z,104048.62
2019-04-14T09:31:52.618Z,104041.83
2019-04-14T09:34:59.280Z,104040.11
2019-04-14T09:38:05.618Z,104044.41
2019-04-14T09:41:12.009Z,104043.06
2019-04-14T09:44:18.413Z,104048.50
2019-04-14T09:47:24.879Z,104046.64
2019-04-14T09:50:32.222Z,104046.09
2019-04-14T09:53:38.874Z,104042.76
2019-04-14T09:56:45.475Z,104052.66
2019-04-14T09:59:51.905Z,104043.42
2019-04-14T10:02:58.254Z,104041.59
2019-04-14T10:06:04.894Z,104049.87
2019-04-14T10:09:11.352Z,104049.98
2019-04-14T10:12:17.875Z,104049.98
2019-04-14T10:15:24.834Z,104054.56
2019-04-14T10:18:31.425Z,104058.28
2019-04-14T10:21:37.854Z,104048.89
2019-04-14T10:24:44.270Z,104054.94
2019-04-14T10:27:50.624Z,104065.81
2019-04-14T10:30:57.202Z,104061.09
2019-04-14T10:34:03.733Z,104057.05
2019-04-14T10:37:10.285Z,104073.47
2019-04-14T10:40:19.118Z,104062.43
2019-04-14T10:43:27.191Z,104060.11
2019-04-14T10:46:33.528Z,104054.44
2019-04-14T10:49:40.291Z,104061.47
2019-04-14T10:52:46.654Z,104065.26
2019-04-14T10:55:53.122Z,104062.05
2019-04-14T10:58:59.570Z,104064.81
2019-04-14T11:02:06.121Z,104062.56
2019-04-14T11:05:12.574Z,104060.63
2019-04-14T11:08:19.482Z,104058.28
2019-04-14T11:11:25.766Z,104054.20
2019-04-14T11:14:32.184Z,104055.06
2019-04-14T11:17:39.090Z,104053.16
2019-04-14T11:20:45.601Z,104045.66
2019-04-14T11:23:51.975Z,104045.94
2019-04-14T11:26:58.698Z,104055.83
2019-04-14T11:30:08.685Z,104051.98
2019-04-14T11:33:22.706Z,104046.07
2019-04-14T11:36:48.997Z,104051.25
2019-04-14T11:39:55.608Z,104042.88
2019-04-14T11:43:04.623Z,104040.42
2019-04-14T11:46:11.237Z,104043.34
2019-04-14T11:49:17.657Z,104038.91
2019-04-14T11:52:23.980Z,104027.16
2019-04-14T11:55:30.274Z,104028.86
2019-04-14T11:58:38.592Z,104032.70
2019-04-14T12:01:57.595Z,104023.27
2019-04-14T12:05:23.249Z,104022.17
2019-04-14T12:08:51.311Z,104014.42
2019-04-14T12:11:57.737Z,104029.41
2019-04-14T12:15:07.463Z,104030.21
2019-04-14T12:18:13.488Z,104027.98
2019-04-14T12:21:19.930Z,104028.45
2019-04-14T12:24:26.499Z,104034.73
2019-04-14T12:27:32.842Z,104033.81
2019-04-14T12:30:39.900Z,104030.50
2019-04-14T12:33:48.383Z,104035.33
2019-04-14T12:36:54.979Z,104026.18
2019-04-14T12:40:02.670Z,104024.68
2019-04-14T12:43:34.289Z,104023.32
2019-04-14T12:47:08.932Z,104021.46
2019-04-14T12:50:36.901Z,104019.37
2019-04-14T12:53:43.186Z,104019.58
2019-04-14T12:56:50.656Z,104015.64
2019-04-14T12:59:56.981Z,104018.94
2019-04-14T13:03:03.373Z,104019.39
2019-04-14T13:06:09.820Z,104013.06
2019-04-14T13:09:16.279Z,104016.66
2019-04-14T13:12:22.696Z,104012.59
2019-04-14T13:15:29.183Z,104011.09
2019-04-14T13:18:36.319Z,104013.80
2019-04-14T13:21:42.882Z,104001.53
2019-04-14T13:24:49.217Z,103996.08
2019-04-14T13:27:55.674Z,103993.05
2019-04-14T13:31:02.012Z,103997.42
2019-04-14T13:34:08.628Z,103989.67
2019-04-14T13:37:14.925Z,103987.16
2019-04-14T13:40:21.622Z,103978.44
2019-04-14T13:43:27.982Z,103978.09
2019-04-14T13:46:34.465Z,103989.05
2019-04-14T13:49:40.910Z,103976.02
2019-04-14T13:52:47.802Z,103971.33
2019-04-14T13:55:54.075Z,103971.94
2019-04-14T13:59:00.556Z,103969.73
2019-04-14T14:02:07.145Z,103968.29
2019-04-14T14:05:13.875Z,103959.82
2019-04-14T14:08:20.245Z,103966.22
2019-04-14T14:11:38.537Z,103972.73
2019-04-14T14:15:06.689Z,103956.16
2019-04-14T14:18:47.291Z,103956.16
2019-04-14T14:22:13.037Z,103963.49
2019-04-14T14:25:24.509Z,103962.64
2019-04-14T14:28:30.917Z,103960.58
2019-04-14T14:31:37.390Z,103959.28
2019-04-14T14:34:43.813Z,103961.41
2019-04-14T14:37:50.145Z,103960.74
2019-04-14T14:40:58.482Z,103959.55
2019-04-14T14:44:04.938Z,103959.08
2019-04-14T14:47:15.843Z,103951.63
2019-04-14T14:50:44.092Z,103944.25
2019-04-14T14:53:50.566Z,103939.61
2019-04-14T14:56:57.033Z,103944.75
2019-04-14T15:00:03.495Z,103941.27
2019-04-14T15:03:09.995Z,103938.37
2019-04-14T15:06:16.444Z,103941.84
2019-04-14T15:09:22.862Z,103938.88
2019-04-14T15:12:29.205Z,103904.94
2019-04-14T15:15:35.547Z,103937.61
2019-04-14T15:18:41.870Z,103934.20
2019-04-14T15:21:48.273Z,103943.36
2019-04-14T15:24:54.735Z,103945.66
2019-04-14T15:28:01.093Z,103942.84
2019-04-14T15:31:07.664Z,103936.98
2019-04-14T15:34:14.104Z,103935.39
2019-04-14T15:37:20.436Z,103940.08
2019-04-14T15:40:26.838Z,103938.31
2019-04-14T15:43:33.615Z,103934.05
2019-04-14T15:46:40.174Z,103919.48
2019-04-14T15:49:46.518Z,103919.48
2019-04-14T15:52:52.986Z,103928.20
2019-04-14T15:55:59.766Z,103927.58
2019-04-14T15:59:11.163Z,103926.39
2019-04-14T16:02:26.881Z,103927.27
2019-04-14T16:05:41.551Z,103923.55
2019-04-14T16:08:55.507Z,103928.72
2019-04-14T16:12:08.561Z,103929.06
2019-04-14T16:15:36.689Z,103926.81
2019-04-14T16:19:05.177Z,103924.92
2019-04-14T16:22:12.757Z,103920.69
2019-04-14T16:25:20.791Z,103928.76
2019-04-14T16:28:49.309Z,103925.17
2019-04-14T16:32:07.361Z,103929.86
2019-04-14T16:35:20.773Z,103932.31
2019-04-14T16:38:27.210Z,103934.54
2019-04-14T16:41:33.507Z,103926.66
2019-04-14T16:44:40.352Z,103922.97
2019-04-14T16:47:46.773Z,103936.69
2019-04-14T16:50:53.295Z,103923.95
2019-04-14T16:54:03.742Z,103927.67
2019-04-14T16:57:28.752Z,103928.27
2019-04-14T17:00:37.815Z,103939.50
2019-04-14T17:03:44.360Z,103941.87
2019-04-14T17:06:50.694Z,103929.59
2019-04-14T17:09:57.072Z,103935.13
2019-04-14T17:13:03.565Z,103935.95
2019-04-14T17:16:35.160Z,103933.34
2019-04-14T17:20:06.422Z,103936.50
2019-04-14T17:23:31.153Z,103925.30
2019-04-14T17:26:47.527Z,103933.34
2019-04-14T17:30:02.334Z,103928.58
2019-04-14T17:33:21.010Z,103936.66
2019-04-14T17:36:44.225Z,103938.98
2019-04-14T17:40:06.255Z,103936.22
2019-04-14T17:43:28.347Z,103927.75
2019-04-14T17:46:52.863Z,103928.75
2019-04-14T17:50:12.156Z,103933.72
2019-04-14T17:53:25.585Z,103922.42
2019-04-14T17:56:50.434Z,103918.89
2019-04-14T18:00:27.879Z,103929.41
2019-04-14T18:03:43.534Z,103927.16
2019-04-14T18:06:51.972Z,103921.51
2019-04-14T18:10:20.742Z,103922.80
2019-04-14T18:13:37.291Z,103925.30
2019-04-14T18:17:04.061Z,103926.59
2019-04-14T18:20:20.240Z,103931.58
2019-04-14T18:23:27.531Z,103928.92
2019-04-14T18:26:34.509Z,103935.69
2019-04-14T18:29:47.054Z,103931.48
2019-04-14T18:33:08.394Z,103938.89
2019-04-14T18:36:36.812Z,103938.00
2019-04-14T18:39:52.729Z,103937.50
2019-04-14T18:43:10.226Z,103946.52
2019-04-14T18:46:35.275Z,103956.44
2019-04-14T18:49:52.456Z,103945.96
2019-04-14T18:53:06.245Z,103952.37
2019-04-14T18:56:24.931Z,103962.25
2019-04-14T18:59:38.641Z,103956.45
2019-04-14T19:02:45.036Z,103976.84
2019-04-14T19:05:51.466Z,103963.41
2019-04-14T19:08:59.058Z,103975.78
2019-04-14T19:12:23.336Z,103977.93
2019-04-14T19:15:42.826Z,103975.40
2019-04-14T19:18:51.756Z,103961.16
2019-04-14T19:21:58.393Z,103980.06
2019-04-14T19:25:08.449Z,103993.38
2019-04-14T19:28:12.901Z,103983.91
2019-04-14T19:31:19.727Z,103992.19
2019-04-14T19:34:26.153Z,103990.87
2019-04-14T19:37:32.490Z,103996.27
2019-04-14T19:40:40.184Z,104004.52
2019-04-14T19:43:46.621Z,103995.64
2019-04-14T19:46:52.956Z,103998.06
2019-04-14T19:49:59.504Z,103993.89
2019-04-14T19:53:05.974Z,104009.61
2019-04-14T19:56:13.549Z,104001.63
2019-04-14T19:59:20.468Z,104001.23
2019-04-14T20:02:27.838Z,104001.63
2019-04-14T20:05:34.261Z,104003.09
2019-04-14T20:08:40.567Z,104001.12
2019-04-14T20:11:47.161Z,104006.83
2019-04-14T20:14:53.466Z,104009.42
2019-04-14T20:18:17.264Z,104009.84
2019-04-14T20:21:48.586Z,104016.12
2019-04-14T20:24:59.241Z,104018.39
2019-04-14T20:28:09.641Z,104010.33
2019-04-14T20:31:38.104Z,104014.40
2019-04-14T20:34:45.046Z,104010.93
2019-04-14T20:37:52.496Z,104013.99
2019-04-14T20:40:58.755Z,104020.92
2019-04-14T20:44:05.297Z,104018.63
2019-04-14T20:47:11.862Z,104017.45
2019-04-14T20:50:18.682Z,104007.30
2019-04-14T20:53:25.231Z,104007.36
2019-04-14T20:56:32.517Z,104017.06
2019-04-14T20:59:38.827Z,104011.08
2019-04-14T21:03:04.233Z,104016.69
2019-04-14T21:06:41.794Z,104018.88
2019-04-14T21:09:58.189Z,104018.16
2019-04-14T21:13:26.802Z,104020.85
2019-04-14T21:16:37.444Z,104022.83
2019-04-14T21:20:05.258Z,104018.31
2019-04-14T21:23:16.265Z,104022.20
2019-04-14T21:26:39.001Z,104024.36
2019-04-14T21:30:03.974Z,104029.89
2019-04-14T21:33:36.427Z,104026.09
2019-04-14T21:36:51.102Z,104023.80
2019-04-14T21:40:25.573Z,104021.11
2019-04-14T21:43:31.890Z,104029.51
2019-04-14T21:46:38.311Z,104025.22
2019-04-14T21:49:44.802Z,104024.09
2019-04-14T21:52:51.408Z,104032.35
2019-04-14T21:55:57.780Z,104030.29
2019-04-14T21:59:10.951Z,104034.07
2019-04-14T22:02:35.470Z,104045.75
2019-04-14T22:05:47.520Z,104048.23
2019-04-14T22:08:54.230Z,104050.45
2019-04-14T22:12:02.390Z,104053.37
2019-04-14T22:15:09.022Z,104059.64
2019-04-14T22:18:15.709Z,104060.09
2019-04-14T22:21:22.067Z,104062.70
2019-04-14T22:24:28.399Z,104061.68
2019-04-14T22:27:34.879Z,104061.73
2019-04-14T22:30:41.708Z,104060.33
2019-04-14T22:33:48.005Z,104066.63
2019-04-14T22:36:55.061Z,104067.23
2019-04-14T22:40:01.868Z,104070.84
2019-04-14T22:43:09.272Z,104066.02
2019-04-14T22:46:16.135Z,104075.81
2019-04-14T22:49:22.421Z,104075.10
2019-04-14T22:52:28.815Z,104070.66
2019-04-14T22:55:35.547Z,104068.72
2019-04-14T22:58:41.856Z,104074.50
2019-04-14T23:01:51.517Z,104066.58
2019-04-14T23:05:11.622Z,104079.99
2019-04-14T23:08:44.287Z,104078.13
2019-04-14T23:11:57.842Z,104082.70
2019-04-14T23:15:29.868Z,104079.38
2019-04-14T23:19:04.680Z,104073.57
2019-04-14T23:22:23.178Z,104088.30
2019-04-14T23:25:29.715Z,104087.90
2019-04-14T23:28:36.046Z,104087.44
2019-04-14T23:31:42.411Z,104088.52
2019-04-14T23:34:48.757Z,104098.38
2019-04-14T23:37:55.804Z,104094.95
2019-04-14T23:41:03.142Z,104094.45
2019-04-14T23:44:09.932Z,104091.42
2019-04-14T23:47:16.338Z,104100.70
2019-04-14T23:50:22.778Z,104097.01
2019-04-14T23:53:29.103Z,104096.92
2019-04-14T23:56:36.246Z,104096.88
2019-04-14T23:59:42.573Z,104094.50
